KCBE/CBE METAR and TAF weather

Enter ICAO airport designator
Station Type Date Time Source
KCBE METAR 2020/02/20 23:25 UTC NOAA

KCBE 202325Z AUTO 32011KT 10SM OVC046 00/M08 A3046 RMK AO2 T10051080


Station Type Date Time Source
KCBE Decoded METAR 2020/02/20 23:25 UTC NOAA

Cumberland, Greater Cumberland Regional Airport, MD, United States (KCBE) 39-36-55N 078-45-39W
Feb 20, 2020 - 06:25 PM EST / 2020.02.20 2325 UTC
Wind: from the NW (320 degrees) at 13 MPH (11 KT):0
Visibility: 10 mile(s):0
Sky conditions: overcast
Temperature: 31.1 F (-0.5 C)
Windchill: 21 F (-6 C):1
Dew Point: 17.6 F (-8.0 C)
Relative Humidity: 56%
Pressure (altimeter): 30.46 in. Hg (1031 hPa)
ob: KCBE 202325Z AUTO 32011KT 10SM OVC046 00/M08 A3046 RMK AO2 T10051080
cycle: 23

Station Type Date Time Source
KCBE TAF UTC NOAA

Error!

Example: see airport list